• Join FlightAware (Why Join?)
  • Login
  • US Flag 
08:21AM EDT


 

Airport Tracker/Info


-or-


 

Live Flight TrackerFlight Track Log ✈ UAL776 ✈ 30-Apr-2013 ✈ KDEN - KLGA

Flight Track Log - Related Links

Times and Time Zones

All times are in EDT time to prevent confusion due to time zone crossing. See the UAL776 flight status page for this flight to view local times or setup timezone preferences in your user account.

Time Position Orientation Groundspeed Altitude Reporting Facility
EDT Latitude Longitude Course Direction KTS MPH feet Rate Location/Type
08:24PM 39.8833 -104.5833 90° East 181 208 6,800  Level Denver TRACON
08:25PM 39.8833 -104.5000 90° East 231 266 9,600 2,100 Climbing Denver TRACON
08:26PM 39.8667 -104.4167 105° East 293 337 10,800 1,560 Climbing Denver TRACON
08:27PM 39.8667 -104.1922 90° East  Level FlightAware Approximate
08:27PM 39.8750 -104.3744 76° East 315 362 11,500  Level Denver Center
08:28PM 39.8667 -104.0336 90° East  Level FlightAware Approximate
08:28PM 39.8781 -104.2414 88° East 370 426 13,500  Level Denver Center
08:29PM 39.8667 -103.8750 90° East  Level FlightAware Approximate
08:29PM 39.8797 -104.0897 89° East 388 447 16,500  Level Denver Center
08:30PM 39.8833 -103.7199 90° East  Level FlightAware Approximate
08:30PM 39.8831 -103.9403 88° East 414 476 19,000  Level Denver Center
08:31PM 39.8875 -103.7867 88° East 426 490 21,200 1,980 Climbing Denver Center
08:32PM 39.9033 -103.6275 83° East 426 490 23,500 1,860 Climbing Denver Center
08:33PM 39.9264 -103.4344 81° East 454 522 25,500 1,800 Climbing Denver Center
08:34PM 39.9447 -103.2639 82° East 470 541 27,300 1,560 Climbing Denver Center
08:35PM 39.9639 -103.0894 82° East 479 551 28,800 1,380 Climbing Denver Center
08:36PM 39.9831 -102.9100 82° East 492 566 30,200 1,320 Climbing Denver Center
08:37PM 40.0022 -102.7264 82° East 502 578 31,600 1,380 Climbing Denver Center
08:38PM 40.0244 -102.5142 82° East 515 593 33,400 1,620 Climbing Denver Center
08:39PM 40.0450 -102.3108 82° East 507 583 35,300 1,680 Climbing Denver Center
08:40PM 40.0644 -102.1114 83° East 496 571 36,900 780 Climbing Denver Center
08:41PM 40.0806 -101.9378 83° East 503 579 37,000  Climbing Denver Center
08:42PM 40.1011 -101.7269 83° East 524 603 37,000  Level Denver Center
08:43PM 40.1167 -101.5428 84° East 533 613 37,000 660 Level Denver Center
08:44PM 40.1364 -101.3292 83° East 531 611 38,400 960 Climbing Denver Center
08:45PM 40.1528 -101.1525 83° East 518 596 39,000 480 Climbing Denver Center
08:47PM 40.1694 -100.9761 83° East 514 592 39,600 720 Climbing Denver Center
08:48PM 40.1908 -100.7419 83° East 511 588 40,700 660 Climbing Denver Center
08:49PM 40.2047 -100.5442 85° East 495 570 41,000 120 Climbing Denver Center
08:50PM 40.2078 -100.3794 89° East 480 552 41,000  Level Denver Center
08:51PM 40.2106 -100.2161 89° East 473 544 41,000  Level Denver Center
08:52PM 40.2128 -100.0228 89° East 478 550 41,000  Level Denver Center
08:53PM 40.2147 -99.8567 89° East 481 554 41,000  Level Denver Center
08:54PM 40.2172 -99.6842 89° East 476 548 41,000  Level Denver Center
08:55PM 40.2186 -99.5106 89° East 479 551 41,000  Level Denver Center
08:56PM 40.2206 -99.3050 89° East 474 545 41,000  Level Denver Center
08:57PM 40.2203 -99.1342 90° East 471 542 41,000  Level Denver Center
08:58PM 40.2214 -98.9325 90° East 467 537 41,000  Level Denver Center
08:58PM 40.2214 -98.8675 90° East 465 535 41,000  Level Minneapolis Center
09:00PM 40.2219 -98.7014 90° East 460 529 41,000  Level Minneapolis Center
09:01PM 40.2222 -98.5364 90° East 457 526 41,000  Level Minneapolis Center
09:02PM 40.2214 -98.3333 90° East 464 534 41,000  Level Minneapolis Center
09:03PM 40.2211 -98.1611 90° East 472 543 41,000  Level Minneapolis Center
09:04PM 40.2208 -97.9569 90° East 471 542 41,000  Level Minneapolis Center
09:05PM 40.2203 -97.7825 90° East 477 549 41,000  Level Minneapolis Center
09:06PM 40.2186 -97.6100 91° East 477 549 41,000  Level Minneapolis Center
09:07PM 40.2172 -97.4022 90° East 476 548 41,000  Level Minneapolis Center
09:08PM 40.2164 -97.2342 90° East 478 550 41,000  Level Minneapolis Center
09:09PM 40.2131 -97.0594 91° East 479 551 41,000  Level Minneapolis Center
09:10PM 40.2108 -96.8889 91° East 475 547 41,000  Level Minneapolis Center
09:11PM 40.2081 -96.6836 91° East 472 543 41,000  Level Minneapolis Center
09:12PM 40.2047 -96.4828 91° East 465 535 41,000  Level Minneapolis Center
09:14PM 40.2017 -96.3158 91° East 463 533 41,000  Level Minneapolis Center
09:15PM 40.2089 -96.1531 87° East 455 524 41,000  Level Minneapolis Center
09:16PM 40.2392 -95.9892 76° East 461 531 41,000  Level Minneapolis Center
09:17PM 40.2711 -95.8214 76° East 471 542 41,000  Level Minneapolis Center
09:18PM 40.3086 -95.6208 76° East 475 547 41,000  Level Minneapolis Center
09:19PM 40.3389 -95.4539 77° East 474 545 41,000  Level Minneapolis Center
09:20PM 40.3692 -95.2869 77° East 473 544 41,000  Level Minneapolis Center
09:21PM 40.3983 -95.1208 77° East 472 543 41,000  Level Minneapolis Center
09:22PM 40.4289 -94.9519 77° East 474 545 41,000  Level Minneapolis Center
09:23PM 40.4578 -94.7847 77° East 473 544 41,000  Level Minneapolis Center
09:24PM 40.4867 -94.6158 77° East 474 545 41,000  Level Minneapolis Center
09:25PM 40.5172 -94.4422 77° East 473 544 41,000  Level Minneapolis Center
09:26PM 40.5467 -94.2736 77° East 476 548 41,000  Level Minneapolis Center
09:27PM 40.5797 -94.0717 78° East 476 548 41,000  Level Minneapolis Center
09:28PM 40.6067 -93.9036 78° East 474 545 41,000  Level Minneapolis Center
09:29PM 40.6261 -93.7683 79° East 473 544 41,000  Level Minneapolis Center
09:30PM 40.6536 -93.5642 80° East 475 547 41,000  Level Minneapolis Center
09:31PM 40.6800 -93.3942 78° East 475 547 41,000  Level Minneapolis Center
09:32PM 40.7047 -93.2250 79° East 474 545 41,000  Level Minneapolis Center
09:33PM 40.7286 -93.0558 79° East 472 543 41,000  Level Minneapolis Center
09:34PM 40.7536 -92.8847 79° East 474 545 41,000  Level Minneapolis Center
09:35PM 40.7889 -92.6811 77° East 475 547 41,000  Level Minneapolis Center
09:36PM 40.8153 -92.5453 76° East 477 549 41,000  Level Minneapolis Center
09:37PM 40.8517 -92.3431 77° East 475 547 41,000  Level Minneapolis Center
09:38PM 40.8889 -92.1408 76° East 473 544 41,000  Level Chicago Center
09:39PM 40.9183 -91.9717 77° East 474 545 41,000  Level Chicago Center
09:40PM 40.9469 -91.8033 77° East 473 544 41,000  Level Chicago Center
09:41PM 40.9794 -91.6167 77° East 472 543 41,000  Level Chicago Center
09:42PM 41.0097 -91.4475 77° East 472 543 41,000  Level Chicago Center
09:43PM 41.0242 -91.2767 84° East 469 540 41,000  Level Chicago Center
09:44PM 41.0381 -91.1053 84° East 469 540 41,000  Level Chicago Center
09:45PM 41.0494 -90.9333 85° East 468 539 41,000  Level Chicago Center
09:47PM 41.0617 -90.7622 85° East 468 539 41,000  Level Chicago Center
09:48PM 41.0733 -90.5908 85° East 466 536 41,000  Level Chicago Center
09:49PM 41.0869 -90.3853 85° East 465 535 41,000  Level Chicago Center
09:50PM 41.0981 -90.2142 85° East 462 532 41,000  Level Chicago Center
09:51PM 41.1078 -90.0428 86° East 461 531 41,000  Level Chicago Center
09:52PM 41.1186 -89.8706 85° East 464 534 41,000  Level Chicago Center
09:53PM 41.1286 -89.6975 86° East 467 537 41,000  Level Chicago Center
09:54PM 41.1389 -89.5261 85° East 463 533 41,000  Level Chicago Center
09:55PM 41.1483 -89.3561 86° East 463 533 41,000  Level Chicago Center
09:56PM 41.1575 -89.1733 86° East 465 535 41,000  Level Chicago Center
09:57PM 41.1667 -89.0058 86° East 461 531 41,000  Level Chicago Center
09:58PM 41.1736 -88.8375 87° East 461 531 41,000  Level Chicago Center
09:59PM 41.1819 -88.6681 86° East 470 541 41,000  Level Chicago Center
10:00PM 41.1897 -88.5014 86° East 460 529 41,000  Level Chicago Center
10:01PM 41.1978 -88.3353 86° East 458 527 41,000  Level Chicago Center
10:02PM 41.2064 -88.1342 87° East 460 529 41,000  Level Chicago Center
10:03PM 41.2142 -87.9669 86° East 464 534 41,000  Level Chicago Center
10:04PM 41.2222 -87.7997 86° East 463 533 41,000  Level Chicago Center
10:05PM 41.2294 -87.6306 87° East 465 535 41,000  Level Chicago Center
10:06PM 41.2361 -87.4603 87° East 467 537 41,000  Level Chicago Center
10:07PM 41.2428 -87.2603 87° East 459 528 41,000  Level Chicago Center
10:08PM 41.2494 -87.0933 87° East 457 526 41,000  Level Chicago Center
10:09PM 41.2550 -86.9258 87° East 457 526 41,000  Level Chicago Center
10:10PM 41.2611 -86.7594 87° East 456 525 41,000  Level Chicago Center
10:12PM 41.2706 -86.4333 88° East 463 533 41,000  Level Chicago Center
10:13PM 41.2753 -86.2256 88° East 470 541 41,000  Level Chicago Center
10:14PM 41.2800 -86.0517 88° East 472 543 41,000  Level Chicago Center
10:15PM 41.2836 -85.8781 88° East 474 545 41,000  Level Chicago Center
10:17PM 41.2845 -85.6424 90° East  Level FlightAware Approximate
10:18PM 41.2953 -85.3578 89° East 475 547 41,000  Level Chicago Center
10:19PM 41.2992 -85.1881 88° East 470 541 41,000  Level Chicago Center
10:20PM 41.3025 -85.0153 88° East 470 541 41,000  Level Chicago Center
10:21PM 41.3058 -84.8078 89° East 471 542 41,000  Level Chicago Center
10:22PM 41.3086 -84.6339 89° East 472 543 41,000  Level Chicago Center
10:23PM 41.3111 -84.4600 89° East 473 544 41,000  Level Chicago Center
10:24PM 41.2869 -84.4918 89° East  Level FlightAware Approximate
10:24PM 41.3136 -84.2850 89° East 475 547 41,000  Level Chicago Center
10:25PM 41.3156 -84.1111 89° East 477 549 41,000  Level Cleveland Center
10:26PM 41.3208 -83.9397 88° East 472 543 41,000  Level Cleveland Center
10:27PM 41.3158 -83.7461 92° East 472 543 41,000  Level Cleveland Center
10:28PM 41.3142 -83.5717 91° East 472 543 41,000  Level Cleveland Center
10:29PM 41.3144 -83.3975 90° East 477 549 41,000  Level Cleveland Center
10:30PM 41.3167 -83.2233 89° East 477 549 41,000  Level Cleveland Center
10:31PM 41.3206 -83.0494 88° East 477 549 41,000  Level Cleveland Center
10:32PM 41.3178 -82.8778 91° East 472 543 41,000  Level Cleveland Center
10:33PM 41.3167 -82.7231 90° East 472 543 41,000  Level Cleveland Center
10:34PM 41.3178 -82.5461 89° East 472 543 41,000  Level Cleveland Center
10:35PM 41.3164 -82.3719 91° East 472 543 41,000  Level Cleveland Center
10:36PM 41.3147 -82.2003 91° East 472 543 41,000  Level Cleveland Center
10:37PM 41.3175 -82.0069 89° East 466 536 41,000  Level Cleveland Center
10:38PM 41.3153 -81.8383 91° East 466 536 41,000  Level Cleveland Center
10:39PM 41.3128 -81.6667 91° East 466 536 41,000  Level Cleveland Center
10:40PM 41.3119 -81.5119 90° East 461 531 41,000  Level Cleveland Center
10:41PM 41.3072 -81.3211 92° East 467 537 41,000  Level Cleveland Center
10:42PM 41.3039 -81.1664 92° East 462 532 41,000  Level Cleveland Center
10:43PM 41.3006 -80.9978 91° East 462 532 41,000  Level Cleveland Center
10:44PM 41.2864 -80.8153 96° East 462 532 41,000  Level Cleveland Center
10:45PM 41.2844 -80.6467 91° East 462 532 41,000  Level Cleveland Center
10:46PM 41.2742 -80.4725 94° East 469 540 41,000  Level Cleveland Center
10:47PM 41.2697 -80.2958 92° East 474 545 41,000  Level Cleveland Center
10:48PM 41.2586 -80.1192 95° East 474 545 41,000  Level Cleveland Center
10:49PM 41.2475 -79.9481 95° East 474 545 41,000  Level Cleveland Center
10:50PM 41.2400 -79.7714 93° East 474 545 41,000  Level Cleveland Center
10:51PM 41.2303 -79.5947 94° East 474 545 41,000  Level Cleveland Center
10:53PM 41.2178 -79.3926 95° East  Level FlightAware Approximate
10:53PM 41.2081 -79.2444 95° East 480 552 41,000  Level Cleveland Center
10:54PM 41.1975 -79.0708 95° East 474 545 41,000  Level Cleveland Center
10:55PM 41.1867 -78.8917 95° East 474 545 41,000  Level Cleveland Center
10:56PM 41.1756 -78.7156 95° East 480 552 41,000 -480 Level Cleveland Center
10:58PM 41.1556 -78.4300 95° East 491 565 39,800 -780 Descending New York Center
10:59PM 41.1439 -78.2547 95° East 491 565 39,100 -660 Descending New York Center
11:00PM 41.1317 -78.0825 95° East 472 543 38,500 -600 Descending New York Center
11:01PM 41.1189 -77.9158 96° East 465 535 38,000 -600 Descending New York Center
11:02PM 41.1078 -77.7522 95° East 460 529 37,400 -540 Descending New York Center
11:03PM 41.0944 -77.5856 96° East 454 522 37,000 -540 Descending New York Center
11:04PM 41.0767 -77.4214 98° East 448 516 36,400 -2,040 Descending New York Center
11:05PM 41.0556 -77.2761 101° East 443 510 33,000 -4,020 Descending New York Center
11:06PM 41.0336 -77.1061 100° East 456 525 28,500 -3,600 Descending New York Center
11:07PM 41.0094 -76.9306 100° East 470 541 25,900 -2,280 Descending New York Center
11:08PM 40.9906 -76.7694 99° East 462 532 24,000 -1,860 Descending New York Center
11:09PM 40.9689 -76.6192 101° East 437 503 22,200 -1,800 Descending New York Center
11:10PM 40.9511 -76.4747 99° East 412 474 20,400 -1,860 Descending New York Center
11:11PM 40.9311 -76.3247 100° East 382 440 18,600 -1,380 Descending New York Center
11:12PM 40.9119 -76.1967 101° East 361 415 17,700 -1,080 Descending New York Center
11:13PM 40.8836 -76.0875 109° East 347 399 16,500 -1,320 Descending New York Center
11:14PM 40.8500 -75.9531 108° East 342 394 15,200 -1,320 Descending New York Center
11:15PM 40.8200 -75.8275 107° East 353 406 13,900 -1,200 Descending New York Center
11:16PM 40.7914 -75.7158 109° East 353 406 12,900 -780 Descending New York Center
11:17PM 40.7631 -75.5986 108° East 343 395 12,400 -540 Descending New York Center
11:18PM 40.7308 -75.4647 108° East 344 396 11,900 -480 Descending New York Center
11:19PM 40.7064 -75.3456 105° East 344 396 11,500 -480 Descending New York Center
11:20PM 40.6819 -75.2233 105° East 344 396 11,000 -540 Descending New York Center
11:21PM 40.6358 -75.1136 119° Southeast 333 383 10,500 -540 Descending New York Center
11:22PM 40.5747 -75.0169 130° Southeast 333 383 10,000 -180 Descending New York Center
11:24PM 40.5147 -74.8303 113° Southeast 282 325 10,000  Level New York Center
11:24PM 40.5000 -74.7833 112° Southeast 278 320 10,000  Level New York TRACON
11:25PM 40.4667 -74.6833 114° Southeast 279 321 10,000 -300 Level New York TRACON
11:26PM 40.4500 -74.6000 105° East 277 319 9,500 -960 Descending New York TRACON
11:27PM 40.4500 -74.4833 90° East 270 311 8,000 -720 Descending New York TRACON
11:28PM 40.4667 -74.4000 75° East 274 315 8,000  Level New York TRACON
11:29PM 40.4833 -74.3167 75° East 273 314 8,000  Level New York TRACON
11:30PM 40.5167 -74.2167 66° East 275 316 8,000 -840 Level New York TRACON
11:31PM 40.5500 -74.1167 66° East 265 305 6,300 -1,800 Descending New York TRACON
11:32PM 40.6167 -74.0667 30° Northeast 257 296 4,300 -1,200 Descending New York TRACON
11:33PM 40.6833 -74.0333 21° North 239 275 4,000 -180 Descending New York TRACON
11:34PM 40.7500 -74.0167 11° North 230 265 4,000  Level New York TRACON
11:35PM 40.8000 -73.9833 27° Northeast 227 261 4,000  Level New York TRACON
11:36PM 40.8500 -73.9500 27° Northeast 215 247 4,000  Level New York TRACON
11:37PM 40.9167 -73.9333 11° North 199 229 4,000  Level New York TRACON
11:38PM 40.9500 -73.9000 37° Northeast 179 206 4,100 -300 Climbing New York TRACON
11:39PM 40.9333 -73.8500 114° Southeast 152 175 3,400 -960 Descending New York TRACON
11:40PM 40.9000 -73.8167 143° Southeast 154 177 2,200 -900 Descending New York TRACON
11:41PM 40.8667 -73.8167 180° South 139 160 1,700 -600 Descending New York TRACON
11:42PM 40.8333 -73.8333 201° Southwest 132 152 1,100 -720 Descending New York TRACON
11:43PM 40.8000 -73.8667 217° Southwest 132 152 300 -840 Descending New York TRACON